Time;durP1;ratioP1;P1;durP2;ratioP2;P2;SDS_P1;SDS_P2;PMS_P1;PMS_P2;Temp;Humidity;BMP_temperature;BMP_pressure;BME280_temperature;BME280_humidity;BME280_pressure;Samples;Min_cycle;Max_cycle;Signal;HPM_P1;HPM_P2
2021/08/12 00:00:50;;;;;;;10.85;9.750001;;;;;;;16.18;79.63574;95597.09;;;;
2021/08/12 00:01:50;;;;;;;10.85;9.750001;;;;;;;16.18;79.63574;95597.09;;;;
2021/08/12 00:02:51;;;;;;;10.85;9.750001;;;;;;;16.18;79.63574;95597.09;;;;
2021/08/12 00:03:51;;;;;;;11.85;10.1;;;;;;;16.1;80.12891;95599.88;;;;
2021/08/12 00:04:52;;;;;;;11.85;10.1;;;;;;;16.1;80.12891;95599.88;;;;
2021/08/12 00:05:52;;;;;;;11.85;10.1;;;;;;;16.1;80.12891;95599.88;;;;
2021/08/12 00:06:53;;;;;;;11.85;10.1;;;;;;;16.1;80.12891;95599.88;;;;
2021/08/12 00:07:53;;;;;;;11.85;10.1;;;;;;;16.1;80.12891;95599.88;;;;
2021/08/12 00:08:55;;;;;;;11.85;10.1;;;;;;;16.1;80.12891;95599.88;;;;
2021/08/12 00:09:57;;;;;;;11.85;10.1;;;;;;;16.1;80.12891;95599.88;;;;
2021/08/12 00:10:57;;;;;;;11.85;10.1;;;;;;;16.1;80.12891;95599.88;;;;
2021/08/12 00:11:59;;;;;;;11.85;10.1;;;;;;;16.1;80.12891;95599.88;;;;
2021/08/12 00:12:59;;;;;;;11.85;10.1;;;;;;;16.1;80.12891;95599.88;;;;
2021/08/12 00:14:00;;;;;;;11.85;10.1;;;;;;;16.1;80.12891;95599.88;;;;
2021/08/12 00:15:00;;;;;;;12;9.950001;;;;;;;16.02;80.49219;95599.02;;;;
2021/08/12 00:16:03;;;;;;;12;9.950001;;;;;;;16.02;80.49219;95599.02;;;;
2021/08/12 00:17:05;;;;;;;12;9.950001;;;;;;;16.02;80.49219;95599.02;;;;
2021/08/12 00:18:05;;;;;;;12;9.950001;;;;;;;16.02;80.49219;95599.02;;;;
2021/08/12 00:19:11;;;;;;;12;9.950001;;;;;;;16.02;80.49219;95599.02;;;;
2021/08/12 00:20:12;;;;;;;12;9.950001;;;;;;;16.02;80.49219;95599.02;;;;
2021/08/12 00:21:12;;;;;;;12;9.950001;;;;;;;16.02;80.49219;95599.02;;;;
2021/08/12 00:22:13;;;;;;;12;9.950001;;;;;;;16.02;80.49219;95599.02;;;;
2021/08/12 00:23:14;;;;;;;12;9.950001;;;;;;;16.02;80.49219;95599.02;;;;
2021/08/12 00:24:14;;;;;;;12;9.950001;;;;;;;16.02;80.49219;95599.02;;;;
2021/08/12 00:25:15;;;;;;;11.65;10.1;;;;;;;15.86;81.04785;95604.91;;;;
2021/08/12 00:26:15;;;;;;;11.65;10.1;;;;;;;15.86;81.04785;95604.91;;;;
2021/08/12 00:27:16;;;;;;;11.65;10.1;;;;;;;15.86;81.04785;95604.91;;;;
2021/08/12 00:28:16;;;;;;;11.65;10.1;;;;;;;15.86;81.04785;95604.91;;;;
2021/08/12 00:29:17;;;;;;;11.65;10.1;;;;;;;15.86;81.04785;95604.91;;;;
2021/08/12 00:30:17;;;;;;;11.65;10.1;;;;;;;15.86;81.04785;95604.91;;;;
2021/08/12 00:31:18;;;;;;;11.65;10.1;;;;;;;15.86;81.04785;95604.91;;;;
2021/08/12 00:32:18;;;;;;;11.65;10.1;;;;;;;15.86;81.04785;95604.91;;;;
2021/08/12 00:33:19;;;;;;;11.65;10.1;;;;;;;15.86;81.04785;95604.91;;;;
2021/08/12 00:34:19;;;;;;;11.65;10.1;;;;;;;15.86;81.04785;95604.91;;;;
2021/08/12 00:35:20;;;;;;;11.65;10.1;;;;;;;15.86;81.04785;95604.91;;;;
2021/08/12 00:36:20;;;;;;;10.85;9.749999;;;;;;;15.74;81.66309;95614.72;;;;
2021/08/12 00:37:21;;;;;;;10.85;9.749999;;;;;;;15.74;81.66309;95614.72;;;;
2021/08/12 00:38:21;;;;;;;10.85;9.749999;;;;;;;15.74;81.66309;95614.72;;;;
2021/08/12 00:39:22;;;;;;;10.85;9.749999;;;;;;;15.74;81.66309;95614.72;;;;
2021/08/12 00:40:22;;;;;;;10.85;9.749999;;;;;;;15.74;81.66309;95614.72;;;;
2021/08/12 00:41:24;;;;;;;10.85;9.749999;;;;;;;15.74;81.66309;95614.72;;;;
2021/08/12 00:42:25;;;;;;;10.85;9.749999;;;;;;;15.74;81.66309;95614.72;;;;
2021/08/12 00:43:25;;;;;;;10.85;9.749999;;;;;;;15.74;81.66309;95614.72;;;;
2021/08/12 00:44:26;;;;;;;10.85;9.749999;;;;;;;15.74;81.66309;95614.72;;;;
2021/08/12 00:45:27;;;;;;;10.85;9.749999;;;;;;;15.74;81.66309;95614.72;;;;
2021/08/12 00:46:27;;;;;;;11.15;9.950001;;;;;;;15.62;82.0957;95614.49;;;;
2021/08/12 00:47:29;;;;;;;11.15;9.950001;;;;;;;15.62;82.0957;95614.49;;;;
2021/08/12 00:48:29;;;;;;;11.15;9.950001;;;;;;;15.62;82.0957;95614.49;;;;
2021/08/12 00:49:30;;;;;;;11.15;9.950001;;;;;;;15.62;82.0957;95614.49;;;;
2021/08/12 00:50:30;;;;;;;11.15;9.950001;;;;;;;15.62;82.0957;95614.49;;;;
2021/08/12 00:51:32;;;;;;;11.15;9.950001;;;;;;;15.62;82.0957;95614.49;;;;
2021/08/12 00:52:37;;;;;;;11.15;9.950001;;;;;;;15.62;82.0957;95614.49;;;;
2021/08/12 00:53:38;;;;;;;11.15;9.950001;;;;;;;15.62;82.0957;95614.49;;;;
2021/08/12 00:54:39;;;;;;;11.15;9.950001;;;;;;;15.62;82.0957;95614.49;;;;
2021/08/12 00:55:42;;;;;;;11.15;9.950001;;;;;;;15.62;82.0957;95614.49;;;;
2021/08/12 00:56:44;;;;;;;11.15;9.950001;;;;;;;15.62;82.0957;95614.49;;;;
2021/08/12 00:57:47;;;;;;;11.05;9.900002;;;;;;;15.52;82.4873;95620.24;;;;
2021/08/12 00:58:48;;;;;;;11.05;9.900002;;;;;;;15.52;82.4873;95620.24;;;;
2021/08/12 00:59:48;;;;;;;11.05;9.900002;;;;;;;15.52;82.4873;95620.24;;;;
2021/08/12 01:00:49;;;;;;;11.05;9.900002;;;;;;;15.52;82.4873;95620.24;;;;
2021/08/12 01:01:50;;;;;;;11.05;9.900002;;;;;;;15.52;82.4873;95620.24;;;;
2021/08/12 01:02:51;;;;;;;11.05;9.900002;;;;;;;15.52;82.4873;95620.24;;;;
2021/08/12 01:03:51;;;;;;;11.05;9.900002;;;;;;;15.52;82.4873;95620.24;;;;
2021/08/12 01:04:52;;;;;;;11.05;9.900002;;;;;;;15.52;82.4873;95620.24;;;;
2021/08/12 01:05:53;;;;;;;11.05;9.900002;;;;;;;15.52;82.4873;95620.24;;;;
2021/08/12 01:06:55;;;;;;;11.05;9.900002;;;;;;;15.52;82.4873;95620.24;;;;
2021/08/12 01:08:01;;;;;;;11.45;10.25;;;;;;;15.43;82.91211;95617.33;;;;
2021/08/12 01:09:08;;;;;;;11.45;10.25;;;;;;;15.43;82.91211;95617.33;;;;
2021/08/12 01:10:14;;;;;;;11.45;10.25;;;;;;;15.43;82.91211;95617.33;;;;
2021/08/12 01:11:21;;;;;;;11.45;10.25;;;;;;;15.43;82.91211;95617.33;;;;
2021/08/12 01:12:28;;;;;;;11.45;10.25;;;;;;;15.43;82.91211;95617.33;;;;
2021/08/12 01:13:32;;;;;;;11.45;10.25;;;;;;;15.43;82.91211;95617.33;;;;
2021/08/12 01:14:45;;;;;;;11.45;10.25;;;;;;;15.43;82.91211;95617.33;;;;
2021/08/12 01:15:54;;;;;;;11.45;10.25;;;;;;;15.43;82.91211;95617.33;;;;
2021/08/12 01:16:59;;;;;;;11.45;10.25;;;;;;;15.43;82.91211;95617.33;;;;
2021/08/12 01:18:04;;;;;;;11.45;10.25;;;;;;;15.43;82.91211;95617.33;;;;
2021/08/12 01:19:10;;;;;;;10.75;9.700002;;;;;;;15.33;83.29395;95624.39;;;;
2021/08/12 01:20:23;;;;;;;10.75;9.700002;;;;;;;15.33;83.29395;95624.39;;;;
2021/08/12 01:21:38;;;;;;;10.75;9.700002;;;;;;;15.33;83.29395;95624.39;;;;
2021/08/12 01:22:50;;;;;;;10.75;9.700002;;;;;;;15.33;83.29395;95624.39;;;;
2021/08/12 01:23:54;;;;;;;10.75;9.700002;;;;;;;15.33;83.29395;95624.39;;;;
2021/08/12 01:24:58;;;;;;;10.75;9.700002;;;;;;;15.33;83.29395;95624.39;;;;
2021/08/12 01:26:05;;;;;;;10.75;9.700002;;;;;;;15.33;83.29395;95624.39;;;;
2021/08/12 01:27:08;;;;;;;10.75;9.700002;;;;;;;15.33;83.29395;95624.39;;;;
2021/08/12 01:28:12;;;;;;;10.75;9.700002;;;;;;;15.33;83.29395;95624.39;;;;
2021/08/12 01:29:17;;;;;;;11.55;10.45;;;;;;;15.23;83.74902;95620.75;;;;
2021/08/12 01:30:33;;;;;;;11.55;10.45;;;;;;;15.23;83.74902;95620.75;;;;
2021/08/12 01:31:49;;;;;;;11.55;10.45;;;;;;;15.23;83.74902;95620.75;;;;
2021/08/12 01:32:59;;;;;;;11.55;10.45;;;;;;;15.23;83.74902;95620.75;;;;
2021/08/12 01:34:11;;;;;;;11.55;10.45;;;;;;;15.23;83.74902;95620.75;;;;
2021/08/12 01:35:24;;;;;;;11.55;10.45;;;;;;;15.23;83.74902;95620.75;;;;
2021/08/12 01:36:28;;;;;;;11.55;10.45;;;;;;;15.23;83.74902;95620.75;;;;
2021/08/12 01:37:30;;;;;;;11.55;10.45;;;;;;;15.23;83.74902;95620.75;;;;
2021/08/12 01:38:33;;;;;;;11.55;10.45;;;;;;;15.23;83.74902;95620.75;;;;
2021/08/12 01:39:37;;;;;;;11.55;10.45;;;;;;;15.23;83.74902;95620.75;;;;
2021/08/12 01:40:40;;;;;;;13.65;10.9;;;;;;;15.14;84.18359;95613.19;;;;
2021/08/12 01:41:42;;;;;;;13.65;10.9;;;;;;;15.14;84.18359;95613.19;;;;
2021/08/12 01:42:43;;;;;;;13.65;10.9;;;;;;;15.14;84.18359;95613.19;;;;
2021/08/12 01:43:45;;;;;;;13.65;10.9;;;;;;;15.14;84.18359;95613.19;;;;
2021/08/12 01:44:46;;;;;;;13.65;10.9;;;;;;;15.14;84.18359;95613.19;;;;
2021/08/12 01:45:47;;;;;;;13.65;10.9;;;;;;;15.14;84.18359;95613.19;;;;
2021/08/12 01:46:50;;;;;;;13.65;10.9;;;;;;;15.14;84.18359;95613.19;;;;
2021/08/12 01:47:51;;;;;;;13.65;10.9;;;;;;;15.14;84.18359;95613.19;;;;
2021/08/12 01:48:52;;;;;;;13.65;10.9;;;;;;;15.14;84.18359;95613.19;;;;
2021/08/12 01:49:55;;;;;;;13.65;10.9;;;;;;;15.14;84.18359;95613.19;;;;
2021/08/12 01:50:56;;;;;;;12.4;11.1;;;;;;;15.08;84.58301;95619.11;;;;
2021/08/12 01:51:57;;;;;;;12.4;11.1;;;;;;;15.08;84.58301;95619.11;;;;
2021/08/12 01:52:59;;;;;;;12.4;11.1;;;;;;;15.08;84.58301;95619.11;;;;
2021/08/12 01:54:02;;;;;;;12.4;11.1;;;;;;;15.08;84.58301;95619.11;;;;
2021/08/12 01:55:03;;;;;;;12.4;11.1;;;;;;;15.08;84.58301;95619.11;;;;
2021/08/12 01:56:05;;;;;;;12.4;11.1;;;;;;;15.08;84.58301;95619.11;;;;
2021/08/12 01:57:07;;;;;;;12.4;11.1;;;;;;;15.08;84.58301;95619.11;;;;
2021/08/12 01:58:08;;;;;;;12.4;11.1;;;;;;;15.08;84.58301;95619.11;;;;
2021/08/12 01:59:11;;;;;;;12.4;11.1;;;;;;;15.08;84.58301;95619.11;;;;
2021/08/12 02:00:13;;;;;;;12.4;11.1;;;;;;;15.08;84.58301;95619.11;;;;
2021/08/12 02:01:14;;;;;;;12.8;11.45;;;;;;;15.04;85.07129;95626.26;;;;
2021/08/12 02:02:18;;;;;;;12.8;11.45;;;;;;;15.04;85.07129;95626.26;;;;
2021/08/12 02:03:19;;;;;;;12.8;11.45;;;;;;;15.04;85.07129;95626.26;;;;
2021/08/12 02:04:21;;;;;;;12.8;11.45;;;;;;;15.04;85.07129;95626.26;;;;
2021/08/12 02:05:23;;;;;;;12.8;11.45;;;;;;;15.04;85.07129;95626.26;;;;
2021/08/12 02:06:25;;;;;;;12.8;11.45;;;;;;;15.04;85.07129;95626.26;;;;
2021/08/12 02:07:34;;;;;;;12.8;11.45;;;;;;;15.04;85.07129;95626.26;;;;
2021/08/12 02:08:34;;;;;;;12.8;11.45;;;;;;;15.04;85.07129;95626.26;;;;
2021/08/12 02:09:35;;;;;;;12.8;11.45;;;;;;;15.04;85.07129;95626.26;;;;
2021/08/12 02:10:35;;;;;;;12.8;11.45;;;;;;;15.04;85.07129;95626.26;;;;
2021/08/12 02:11:36;;;;;;;12.8;11.45;;;;;;;15.04;85.07129;95626.26;;;;
2021/08/12 02:12:37;;;;;;;12.4;11.1;;;;;;;14.97;85.49805;95618.29;;;;
2021/08/12 02:13:37;;;;;;;12.4;11.1;;;;;;;14.97;85.49805;95618.29;;;;
2021/08/12 02:14:39;;;;;;;12.4;11.1;;;;;;;14.97;85.49805;95618.29;;;;
2021/08/12 02:15:40;;;;;;;12.4;11.1;;;;;;;14.97;85.49805;95618.29;;;;
2021/08/12 02:16:40;;;;;;;12.4;11.1;;;;;;;14.97;85.49805;95618.29;;;;
2021/08/12 02:17:41;;;;;;;12.4;11.1;;;;;;;14.97;85.49805;95618.29;;;;
2021/08/12 02:18:41;;;;;;;12.4;11.1;;;;;;;14.97;85.49805;95618.29;;;;
2021/08/12 02:19:42;;;;;;;12.4;11.1;;;;;;;14.97;85.49805;95618.29;;;;
2021/08/12 02:20:43;;;;;;;12.4;11.1;;;;;;;14.97;85.49805;95618.29;;;;
2021/08/12 02:21:50;;;;;;;12.4;11.1;;;;;;;14.97;85.49805;95618.29;;;;
2021/08/12 02:22:56;;;;;;;14.15;11.65;;;;;;;14.89;85.87109;95604.75;;;;
2021/08/12 02:24:03;;;;;;;14.15;11.65;;;;;;;14.89;85.87109;95604.75;;;;
2021/08/12 02:25:09;;;;;;;14.15;11.65;;;;;;;14.89;85.87109;95604.75;;;;
2021/08/12 02:26:13;;;;;;;14.15;11.65;;;;;;;14.89;85.87109;95604.75;;;;
2021/08/12 02:27:18;;;;;;;14.15;11.65;;;;;;;14.89;85.87109;95604.75;;;;
2021/08/12 02:28:21;;;;;;;14.15;11.65;;;;;;;14.89;85.87109;95604.75;;;;
2021/08/12 02:29:23;;;;;;;14.15;11.65;;;;;;;14.89;85.87109;95604.75;;;;
2021/08/12 02:30:24;;;;;;;14.15;11.65;;;;;;;14.89;85.87109;95604.75;;;;
2021/08/12 02:31:25;;;;;;;14.15;11.65;;;;;;;14.89;85.87109;95604.75;;;;
2021/08/12 02:32:28;;;;;;;14.15;11.65;;;;;;;14.89;85.87109;95604.75;;;;
2021/08/12 02:33:32;;;;;;;14.5;11.8;;;;;;;14.87;86.12598;95596.44;;;;
2021/08/12 02:34:35;;;;;;;14.5;11.8;;;;;;;14.87;86.12598;95596.44;;;;
2021/08/12 02:35:38;;;;;;;14.5;11.8;;;;;;;14.87;86.12598;95596.44;;;;
2021/08/12 02:36:39;;;;;;;14.5;11.8;;;;;;;14.87;86.12598;95596.44;;;;
2021/08/12 02:37:42;;;;;;;14.5;11.8;;;;;;;14.87;86.12598;95596.44;;;;
2021/08/12 02:38:43;;;;;;;14.5;11.8;;;;;;;14.87;86.12598;95596.44;;;;
2021/08/12 02:39:45;;;;;;;14.5;11.8;;;;;;;14.87;86.12598;95596.44;;;;
2021/08/12 02:40:47;;;;;;;14.5;11.8;;;;;;;14.87;86.12598;95596.44;;;;
2021/08/12 02:41:49;;;;;;;14.5;11.8;;;;;;;14.87;86.12598;95596.44;;;;
2021/08/12 02:42:52;;;;;;;14.5;11.8;;;;;;;14.87;86.12598;95596.44;;;;
2021/08/12 02:43:55;;;;;;;12.25;11;;;;;;;14.84;86.28027;95601.98;;;;
2021/08/12 02:44:56;;;;;;;12.25;11;;;;;;;14.84;86.28027;95601.98;;;;
2021/08/12 02:45:58;;;;;;;12.25;11;;;;;;;14.84;86.28027;95601.98;;;;
2021/08/12 02:47:02;;;;;;;12.25;11;;;;;;;14.84;86.28027;95601.98;;;;
2021/08/12 02:48:05;;;;;;;12.25;11;;;;;;;14.84;86.28027;95601.98;;;;
2021/08/12 02:49:09;;;;;;;12.25;11;;;;;;;14.84;86.28027;95601.98;;;;
2021/08/12 02:50:10;;;;;;;12.25;11;;;;;;;14.84;86.28027;95601.98;;;;
2021/08/12 02:51:12;;;;;;;12.25;11;;;;;;;14.84;86.28027;95601.98;;;;
2021/08/12 02:52:13;;;;;;;12.25;11;;;;;;;14.84;86.28027;95601.98;;;;
2021/08/12 02:53:15;;;;;;;12.25;11;;;;;;;14.84;86.28027;95601.98;;;;
2021/08/12 02:54:16;;;;;;;12.25;11;;;;;;;14.84;86.28027;95601.98;;;;
2021/08/12 02:55:18;;;;;;;12.65;10.95;;;;;;;14.75;86.50098;95593.98;;;;
2021/08/12 02:56:19;;;;;;;12.65;10.95;;;;;;;14.75;86.50098;95593.98;;;;
2021/08/12 02:57:21;;;;;;;12.65;10.95;;;;;;;14.75;86.50098;95593.98;;;;
2021/08/12 02:58:22;;;;;;;12.65;10.95;;;;;;;14.75;86.50098;95593.98;;;;
2021/08/12 02:59:25;;;;;;;12.65;10.95;;;;;;;14.75;86.50098;95593.98;;;;
2021/08/12 03:00:26;;;;;;;12.65;10.95;;;;;;;14.75;86.50098;95593.98;;;;
2021/08/12 03:01:26;;;;;;;12.65;10.95;;;;;;;14.75;86.50098;95593.98;;;;
2021/08/12 03:02:27;;;;;;;12.65;10.95;;;;;;;14.75;86.50098;95593.98;;;;
2021/08/12 03:03:29;;;;;;;12.65;10.95;;;;;;;14.75;86.50098;95593.98;;;;
2021/08/12 03:04:30;;;;;;;12.65;10.95;;;;;;;14.75;86.50098;95593.98;;;;
2021/08/12 03:05:30;;;;;;;12.6;11.4;;;;;;;14.65;86.79395;95597.92;;;;
2021/08/12 03:06:33;;;;;;;12.6;11.4;;;;;;;14.65;86.79395;95597.92;;;;
2021/08/12 03:07:36;;;;;;;12.6;11.4;;;;;;;14.65;86.79395;95597.92;;;;
2021/08/12 03:08:37;;;;;;;12.6;11.4;;;;;;;14.65;86.79395;95597.92;;;;
2021/08/12 03:09:38;;;;;;;12.6;11.4;;;;;;;14.65;86.79395;95597.92;;;;
2021/08/12 03:10:42;;;;;;;12.6;11.4;;;;;;;14.65;86.79395;95597.92;;;;
2021/08/12 03:11:42;;;;;;;12.6;11.4;;;;;;;14.65;86.79395;95597.92;;;;
2021/08/12 03:12:44;;;;;;;12.6;11.4;;;;;;;14.65;86.79395;95597.92;;;;
2021/08/12 03:13:46;;;;;;;12.6;11.4;;;;;;;14.65;86.79395;95597.92;;;;
2021/08/12 03:14:49;;;;;;;12.6;11.4;;;;;;;14.65;86.79395;95597.92;;;;
2021/08/12 03:15:50;;;;;;;12.6;10.6;;;;;;;14.56;87.12012;95606.12;;;;
2021/08/12 03:16:51;;;;;;;12.6;10.6;;;;;;;14.56;87.12012;95606.12;;;;
2021/08/12 03:17:53;;;;;;;12.6;10.6;;;;;;;14.56;87.12012;95606.12;;;;
2021/08/12 03:18:54;;;;;;;12.6;10.6;;;;;;;14.56;87.12012;95606.12;;;;
2021/08/12 03:19:55;;;;;;;12.6;10.6;;;;;;;14.56;87.12012;95606.12;;;;
2021/08/12 03:20:55;;;;;;;12.6;10.6;;;;;;;14.56;87.12012;95606.12;;;;
2021/08/12 03:21:56;;;;;;;12.6;10.6;;;;;;;14.56;87.12012;95606.12;;;;
2021/08/12 03:22:59;;;;;;;12.6;10.6;;;;;;;14.56;87.12012;95606.12;;;;
2021/08/12 03:24:01;;;;;;;12.6;10.6;;;;;;;14.56;87.12012;95606.12;;;;
2021/08/12 03:25:03;;;;;;;12.6;10.6;;;;;;;14.56;87.12012;95606.12;;;;
2021/08/12 03:26:04;;;;;;;12.6;10.6;;;;;;;14.56;87.12012;95606.12;;;;
2021/08/12 03:27:07;;;;;;;11.4;10.3;;;;;;;14.46;87.41113;95608.83;;;;
2021/08/12 03:28:08;;;;;;;11.4;10.3;;;;;;;14.46;87.41113;95608.83;;;;
2021/08/12 03:29:08;;;;;;;11.4;10.3;;;;;;;14.46;87.41113;95608.83;;;;
2021/08/12 03:30:09;;;;;;;11.4;10.3;;;;;;;14.46;87.41113;95608.83;;;;
2021/08/12 03:31:10;;;;;;;11.4;10.3;;;;;;;14.46;87.41113;95608.83;;;;
2021/08/12 03:32:10;;;;;;;11.4;10.3;;;;;;;14.46;87.41113;95608.83;;;;
2021/08/12 03:33:11;;;;;;;11.4;10.3;;;;;;;14.46;87.41113;95608.83;;;;
2021/08/12 03:34:12;;;;;;;11.4;10.3;;;;;;;14.46;87.41113;95608.83;;;;
2021/08/12 03:35:12;;;;;;;11.4;10.3;;;;;;;14.46;87.41113;95608.83;;;;
2021/08/12 03:36:13;;;;;;;11.4;10.3;;;;;;;14.46;87.41113;95608.83;;;;
2021/08/12 03:37:13;;;;;;;12.1;10.8;;;;;;;14.37;87.74902;95613.89;;;;
2021/08/12 03:38:14;;;;;;;12.1;10.8;;;;;;;14.37;87.74902;95613.89;;;;
2021/08/12 03:39:15;;;;;;;12.1;10.8;;;;;;;14.37;87.74902;95613.89;;;;
2021/08/12 03:40:15;;;;;;;12.1;10.8;;;;;;;14.37;87.74902;95613.89;;;;
2021/08/12 03:41:16;;;;;;;12.1;10.8;;;;;;;14.37;87.74902;95613.89;;;;
2021/08/12 03:42:16;;;;;;;12.1;10.8;;;;;;;14.37;87.74902;95613.89;;;;
2021/08/12 03:43:17;;;;;;;12.1;10.8;;;;;;;14.37;87.74902;95613.89;;;;
2021/08/12 03:44:18;;;;;;;12.1;10.8;;;;;;;14.37;87.74902;95613.89;;;;
2021/08/12 03:45:18;;;;;;;12.1;10.8;;;;;;;14.37;87.74902;95613.89;;;;
2021/08/12 03:46:19;;;;;;;12.1;10.8;;;;;;;14.37;87.74902;95613.89;;;;
2021/08/12 03:47:19;;;;;;;12.1;10.8;;;;;;;14.37;87.74902;95613.89;;;;
2021/08/12 03:48:20;;;;;;;13;11.6;;;;;;;14.3;88.05664;95610.12;;;;
2021/08/12 03:49:20;;;;;;;13;11.6;;;;;;;14.3;88.05664;95610.12;;;;
2021/08/12 03:50:21;;;;;;;13;11.6;;;;;;;14.3;88.05664;95610.12;;;;
2021/08/12 03:51:22;;;;;;;13;11.6;;;;;;;14.3;88.05664;95610.12;;;;
2021/08/12 03:52:22;;;;;;;13;11.6;;;;;;;14.3;88.05664;95610.12;;;;
2021/08/12 03:53:24;;;;;;;13;11.6;;;;;;;14.3;88.05664;95610.12;;;;
2021/08/12 03:54:24;;;;;;;13;11.6;;;;;;;14.3;88.05664;95610.12;;;;
2021/08/12 03:55:25;;;;;;;13;11.6;;;;;;;14.3;88.05664;95610.12;;;;
2021/08/12 03:56:25;;;;;;;13;11.6;;;;;;;14.3;88.05664;95610.12;;;;
2021/08/12 03:57:26;;;;;;;13;11.6;;;;;;;14.3;88.05664;95610.12;;;;
2021/08/12 03:58:26;;;;;;;12.05;10.85;;;;;;;14.24;88.35742;95607.95;;;;
2021/08/12 03:59:27;;;;;;;12.05;10.85;;;;;;;14.24;88.35742;95607.95;;;;
2021/08/12 04:00:27;;;;;;;12.05;10.85;;;;;;;14.24;88.35742;95607.95;;;;
2021/08/12 04:01:29;;;;;;;12.05;10.85;;;;;;;14.24;88.35742;95607.95;;;;
2021/08/12 04:02:30;;;;;;;12.05;10.85;;;;;;;14.24;88.35742;95607.95;;;;
2021/08/12 04:03:31;;;;;;;12.05;10.85;;;;;;;14.24;88.35742;95607.95;;;;
2021/08/12 04:04:32;;;;;;;12.05;10.85;;;;;;;14.24;88.35742;95607.95;;;;
2021/08/12 04:05:33;;;;;;;12.05;10.85;;;;;;;14.24;88.35742;95607.95;;;;
2021/08/12 04:06:34;;;;;;;12.05;10.85;;;;;;;14.24;88.35742;95607.95;;;;
2021/08/12 04:07:34;;;;;;;12.05;10.85;;;;;;;14.24;88.35742;95607.95;;;;
2021/08/12 04:08:35;;;;;;;12.05;10.85;;;;;;;14.24;88.35742;95607.95;;;;
2021/08/12 04:09:35;;;;;;;12.45;10.4;;;;;;;14.18;88.66797;95608.83;;;;
2021/08/12 04:10:36;;;;;;;12.45;10.4;;;;;;;14.18;88.66797;95608.83;;;;
2021/08/12 04:11:36;;;;;;;12.45;10.4;;;;;;;14.18;88.66797;95608.83;;;;
2021/08/12 04:12:37;;;;;;;12.45;10.4;;;;;;;14.18;88.66797;95608.83;;;;
2021/08/12 04:13:38;;;;;;;12.45;10.4;;;;;;;14.18;88.66797;95608.83;;;;
2021/08/12 04:14:38;;;;;;;12.45;10.4;;;;;;;14.18;88.66797;95608.83;;;;
2021/08/12 04:15:39;;;;;;;12.45;10.4;;;;;;;14.18;88.66797;95608.83;;;;
2021/08/12 04:16:39;;;;;;;12.45;10.4;;;;;;;14.18;88.66797;95608.83;;;;
2021/08/12 04:17:40;;;;;;;12.45;10.4;;;;;;;14.18;88.66797;95608.83;;;;
2021/08/12 04:18:40;;;;;;;12.45;10.4;;;;;;;14.18;88.66797;95608.83;;;;
2021/08/12 04:19:41;;;;;;;12.45;10.4;;;;;;;14.18;88.66797;95608.83;;;;
2021/08/12 04:20:42;;;;;;;12.9;10.1;;;;;;;14.21;88.93164;95612.95;;;;
2021/08/12 04:21:42;;;;;;;12.9;10.1;;;;;;;14.21;88.93164;95612.95;;;;
2021/08/12 04:22:43;;;;;;;12.9;10.1;;;;;;;14.21;88.93164;95612.95;;;;
2021/08/12 04:23:43;;;;;;;12.9;10.1;;;;;;;14.21;88.93164;95612.95;;;;
2021/08/12 04:24:44;;;;;;;12.9;10.1;;;;;;;14.21;88.93164;95612.95;;;;
2021/08/12 04:25:45;;;;;;;12.9;10.1;;;;;;;14.21;88.93164;95612.95;;;;
2021/08/12 04:26:46;;;;;;;12.9;10.1;;;;;;;14.21;88.93164;95612.95;;;;
2021/08/12 04:27:46;;;;;;;12.9;10.1;;;;;;;14.21;88.93164;95612.95;;;;
2021/08/12 04:28:47;;;;;;;12.9;10.1;;;;;;;14.21;88.93164;95612.95;;;;
2021/08/12 04:29:47;;;;;;;12.9;10.1;;;;;;;14.21;88.93164;95612.95;;;;
2021/08/12 04:30:49;;;;;;;11.7;10.45;;;;;;;14.25;89.0791;95610.41;;;;
2021/08/12 04:31:50;;;;;;;11.7;10.45;;;;;;;14.25;89.0791;95610.41;;;;
2021/08/12 04:32:50;;;;;;;11.7;10.45;;;;;;;14.25;89.0791;95610.41;;;;
2021/08/12 04:33:51;;;;;;;11.7;10.45;;;;;;;14.25;89.0791;95610.41;;;;
2021/08/12 04:34:51;;;;;;;11.7;10.45;;;;;;;14.25;89.0791;95610.41;;;;
2021/08/12 04:35:52;;;;;;;11.7;10.45;;;;;;;14.25;89.0791;95610.41;;;;
2021/08/12 04:36:52;;;;;;;11.7;10.45;;;;;;;14.25;89.0791;95610.41;;;;
2021/08/12 04:37:53;;;;;;;11.7;10.45;;;;;;;14.25;89.0791;95610.41;;;;
2021/08/12 04:38:53;;;;;;;11.7;10.45;;;;;;;14.25;89.0791;95610.41;;;;
2021/08/12 04:39:54;;;;;;;11.7;10.45;;;;;;;14.25;89.0791;95610.41;;;;
2021/08/12 04:40:54;;;;;;;11.7;10.45;;;;;;;14.25;89.0791;95610.41;;;;
2021/08/12 04:41:55;;;;;;;13.05;10.85;;;;;;;14.26;89.38184;95609.88;;;;
2021/08/12 04:42:56;;;;;;;13.05;10.85;;;;;;;14.26;89.38184;95609.88;;;;
2021/08/12 04:43:56;;;;;;;13.05;10.85;;;;;;;14.26;89.38184;95609.88;;;;
2021/08/12 04:44:57;;;;;;;13.05;10.85;;;;;;;14.26;89.38184;95609.88;;;;
2021/08/12 04:45:57;;;;;;;13.05;10.85;;;;;;;14.26;89.38184;95609.88;;;;
2021/08/12 04:46:58;;;;;;;13.05;10.85;;;;;;;14.26;89.38184;95609.88;;;;
2021/08/12 04:47:59;;;;;;;13.05;10.85;;;;;;;14.26;89.38184;95609.88;;;;
2021/08/12 04:49:02;;;;;;;13.05;10.85;;;;;;;14.26;89.38184;95609.88;;;;
2021/08/12 04:50:03;;;;;;;13.05;10.85;;;;;;;14.26;89.38184;95609.88;;;;
2021/08/12 04:51:04;;;;;;;13.05;10.85;;;;;;;14.26;89.38184;95609.88;;;;
2021/08/12 04:52:05;;;;;;;13.6;12.1;;;;;;;14.33;89.83594;95617.35;;;;
2021/08/12 04:53:06;;;;;;;13.6;12.1;;;;;;;14.33;89.83594;95617.35;;;;
2021/08/12 04:54:06;;;;;;;13.6;12.1;;;;;;;14.33;89.83594;95617.35;;;;
2021/08/12 04:55:07;;;;;;;13.6;12.1;;;;;;;14.33;89.83594;95617.35;;;;
2021/08/12 04:56:10;;;;;;;13.6;12.1;;;;;;;14.33;89.83594;95617.35;;;;
2021/08/12 04:57:10;;;;;;;13.6;12.1;;;;;;;14.33;89.83594;95617.35;;;;
2021/08/12 04:58:11;;;;;;;13.6;12.1;;;;;;;14.33;89.83594;95617.35;;;;
2021/08/12 04:59:12;;;;;;;13.6;12.1;;;;;;;14.33;89.83594;95617.35;;;;
2021/08/12 05:00:12;;;;;;;13.6;12.1;;;;;;;14.33;89.83594;95617.35;;;;
2021/08/12 05:01:13;;;;;;;13.6;12.1;;;;;;;14.33;89.83594;95617.35;;;;
2021/08/12 05:02:18;;;;;;;13.6;12.1;;;;;;;14.33;89.83594;95617.35;;;;
2021/08/12 05:03:18;;;;;;;14.05;12.55;;;;;;;14.49;90.12793;95621.8;;;;
2021/08/12 05:04:19;;;;;;;14.05;12.55;;;;;;;14.49;90.12793;95621.8;;;;
2021/08/12 05:05:19;;;;;;;14.05;12.55;;;;;;;14.49;90.12793;95621.8;;;;
2021/08/12 05:06:20;;;;;;;14.05;12.55;;;;;;;14.49;90.12793;95621.8;;;;
2021/08/12 05:07:20;;;;;;;14.05;12.55;;;;;;;14.49;90.12793;95621.8;;;;
2021/08/12 05:08:24;;;;;;;14.05;12.55;;;;;;;14.49;90.12793;95621.8;;;;
2021/08/12 05:09:25;;;;;;;14.05;12.55;;;;;;;14.49;90.12793;95621.8;;;;
2021/08/12 05:10:25;;;;;;;14.05;12.55;;;;;;;14.49;90.12793;95621.8;;;;
2021/08/12 05:11:26;;;;;;;14.05;12.55;;;;;;;14.49;90.12793;95621.8;;;;
2021/08/12 05:12:26;;;;;;;14.05;12.55;;;;;;;14.49;90.12793;95621.8;;;;
2021/08/12 05:13:27;;;;;;;13.9;12.5;;;;;;;14.73;90.37012;95620.03;;;;
2021/08/12 05:14:27;;;;;;;13.9;12.5;;;;;;;14.73;90.37012;95620.03;;;;
2021/08/12 05:15:28;;;;;;;13.9;12.5;;;;;;;14.73;90.37012;95620.03;;;;
2021/08/12 05:16:29;;;;;;;13.9;12.5;;;;;;;14.73;90.37012;95620.03;;;;
2021/08/12 05:17:29;;;;;;;13.9;12.5;;;;;;;14.73;90.37012;95620.03;;;;
2021/08/12 05:18:30;;;;;;;13.9;12.5;;;;;;;14.73;90.37012;95620.03;;;;
2021/08/12 05:19:31;;;;;;;13.9;12.5;;;;;;;14.73;90.37012;95620.03;;;;
2021/08/12 05:20:31;;;;;;;13.9;12.5;;;;;;;14.73;90.37012;95620.03;;;;
2021/08/12 05:21:32;;;;;;;13.9;12.5;;;;;;;14.73;90.37012;95620.03;;;;
2021/08/12 05:22:32;;;;;;;13.9;12.5;;;;;;;14.73;90.37012;95620.03;;;;
2021/08/12 05:23:35;;;;;;;13.9;12.5;;;;;;;14.73;90.37012;95620.03;;;;
2021/08/12 05:24:36;;;;;;;13.85;12.25;;;;;;;15.06;90.53418;95621.25;;;;
2021/08/12 05:25:36;;;;;;;13.85;12.25;;;;;;;15.06;90.53418;95621.25;;;;
2021/08/12 05:26:37;;;;;;;13.85;12.25;;;;;;;15.06;90.53418;95621.25;;;;
2021/08/12 05:27:38;;;;;;;13.85;12.25;;;;;;;15.06;90.53418;95621.25;;;;
2021/08/12 05:28:39;;;;;;;13.85;12.25;;;;;;;15.06;90.53418;95621.25;;;;
2021/08/12 05:29:39;;;;;;;13.85;12.25;;;;;;;15.06;90.53418;95621.25;;;;
2021/08/12 05:30:39;;;;;;;13.85;12.25;;;;;;;15.06;90.53418;95621.25;;;;
2021/08/12 05:31:40;;;;;;;13.85;12.25;;;;;;;15.06;90.53418;95621.25;;;;
2021/08/12 05:32:41;;;;;;;13.85;12.25;;;;;;;15.06;90.53418;95621.25;;;;
2021/08/12 05:33:41;;;;;;;13.85;12.25;;;;;;;15.06;90.53418;95621.25;;;;
2021/08/12 05:34:42;;;;;;;14.8;13.25;;;;;;;15.52;90.59375;95632.64;;;;
2021/08/12 05:35:43;;;;;;;14.8;13.25;;;;;;;15.52;90.59375;95632.64;;;;
2021/08/12 05:36:43;;;;;;;14.8;13.25;;;;;;;15.52;90.59375;95632.64;;;;
2021/08/12 05:37:44;;;;;;;14.8;13.25;;;;;;;15.52;90.59375;95632.64;;;;
2021/08/12 05:38:44;;;;;;;14.8;13.25;;;;;;;15.52;90.59375;95632.64;;;;
2021/08/12 05:39:45;;;;;;;14.8;13.25;;;;;;;15.52;90.59375;95632.64;;;;
2021/08/12 05:40:45;;;;;;;14.8;13.25;;;;;;;15.52;90.59375;95632.64;;;;
2021/08/12 05:41:46;;;;;;;14.8;13.25;;;;;;;15.52;90.59375;95632.64;;;;
2021/08/12 05:42:46;;;;;;;14.8;13.25;;;;;;;15.52;90.59375;95632.64;;;;
2021/08/12 05:43:47;;;;;;;14.8;13.25;;;;;;;15.52;90.59375;95632.64;;;;